createdAt,value
2019-01-19T00:00:10.715Z,151.63
2019-01-19T00:02:45.297Z,174.40
2019-01-19T00:06:04.190Z,173.43
2019-01-19T00:09:00.175Z,125.23
2019-01-19T00:12:04.224Z,126.73
2019-01-19T00:14:44.656Z,126.43
2019-01-19T00:17:32.753Z,111.17
2019-01-19T00:20:37.962Z,119.00
2019-01-19T00:23:48.780Z,102.87
2019-01-19T00:26:52.409Z,105.00
2019-01-19T00:29:45.881Z,112.33
2019-01-19T00:32:53.444Z,113.60
2019-01-19T00:35:47.254Z,103.22
2019-01-19T00:38:29.174Z,107.30
2019-01-19T00:41:38.756Z,99.07
2019-01-19T00:45:09.041Z,104.17
2019-01-19T00:48:15.834Z,112.50
2019-01-19T00:51:18.241Z,109.77
2019-01-19T00:53:54.438Z,108.00
2019-01-19T00:56:58.062Z,110.47
2019-01-19T00:59:29.964Z,119.37
2019-01-19T01:02:47.629Z,121.83
2019-01-19T01:05:55.399Z,116.37
2019-01-19T01:08:49.865Z,117.13
2019-01-19T01:11:47.001Z,108.90
2019-01-19T01:14:52.498Z,113.67
2019-01-19T01:17:49.666Z,110.07
2019-01-19T01:20:48.557Z,124.97
2019-01-19T01:24:12.921Z,131.13
2019-01-19T01:27:23.521Z,134.97
2019-01-19T01:30:53.422Z,146.97
2019-01-19T01:34:17.848Z,141.37
2019-01-19T01:37:26.536Z,136.97
2019-01-19T01:40:41.701Z,149.03
2019-01-19T01:43:41.074Z,132.30
2019-01-19T01:46:37.312Z,146.20
2019-01-19T01:49:22.447Z,146.33
2019-01-19T01:52:17.806Z,126.03
2019-01-19T01:55:17.417Z,106.97
2019-01-19T01:58:12.863Z,110.13
2019-01-19T02:01:21.676Z,130.00
2019-01-19T02:04:10.969Z,152.90
2019-01-19T02:07:05.203Z,139.00
2019-01-19T02:10:02.531Z,134.30
2019-01-19T02:12:49.028Z,130.67
2019-01-19T02:15:51.146Z,127.63
2019-01-19T02:18:59.210Z,131.43
2019-01-19T02:22:22.635Z,159.17
2019-01-19T02:25:37.091Z,149.27
2019-01-19T02:28:13.805Z,143.97
2019-01-19T02:31:20.449Z,133.13
2019-01-19T02:34:35.622Z,161.47
2019-01-19T02:37:30.712Z,134.70
2019-01-19T02:40:15.841Z,150.27
2019-01-19T02:43:07.742Z,139.57
2019-01-19T02:45:55.600Z,142.57
2019-01-19T02:49:00.976Z,131.17
2019-01-19T02:52:40.768Z,149.67
2019-01-19T02:55:38.101Z,124.83
2019-01-19T02:58:35.897Z,146.13
2019-01-19T03:01:40.741Z,139.73
2019-01-19T03:04:49.912Z,126.73
2019-01-19T03:08:14.531Z,120.70
2019-01-19T03:11:31.787Z,126.90
2019-01-19T03:14:30.458Z,125.03
2019-01-19T03:17:47.504Z,125.90
2019-01-19T03:20:59.555Z,129.53
2019-01-19T03:24:16.509Z,113.47
2019-01-19T03:27:02.185Z,115.77
2019-01-19T03:29:41.871Z,105.00
2019-01-19T03:32:29.976Z,112.10
2019-01-19T03:35:20.776Z,133.83
2019-01-19T03:38:27.111Z,107.77
2019-01-19T03:41:13.400Z,112.13
2019-01-19T03:44:28.550Z,87.37
2019-01-19T03:47:25.070Z,108.00
2019-01-19T03:50:46.114Z,91.43
2019-01-19T03:53:28.023Z,113.13
2019-01-19T03:56:21.335Z,99.83
2019-01-19T03:59:21.861Z,117.53
2019-01-19T04:02:16.197Z,107.53
2019-01-19T04:05:09.308Z,102.47
2019-01-19T04:08:09.570Z,117.90
2019-01-19T04:10:45.113Z,113.43
2019-01-19T04:13:53.552Z,108.87
2019-01-19T04:17:18.183Z,112.87
2019-01-19T04:20:15.613Z,113.43
2019-01-19T04:22:49.190Z,129.20
2019-01-19T04:25:50.185Z,123.33
2019-01-19T04:28:19.665Z,121.30
2019-01-19T04:30:49.753Z,122.83
2019-01-19T04:33:17.421Z,136.63
2019-01-19T04:35:45.274Z,132.03
2019-01-19T04:38:12.998Z,132.73
2019-01-19T04:40:40.561Z,136.03
2019-01-19T04:43:09.098Z,141.30
2019-01-19T04:45:36.620Z,131.77
2019-01-19T04:48:04.529Z,139.47
2019-01-19T04:50:32.067Z,122.83
2019-01-19T04:52:59.562Z,130.80
2019-01-19T04:55:27.171Z,147.40
2019-01-19T04:57:54.828Z,163.20
2019-01-19T05:00:23.204Z,125.83
2019-01-19T05:02:50.790Z,107.80
2019-01-19T05:05:18.782Z,103.47
2019-01-19T05:07:46.144Z,107.93
2019-01-19T05:10:14.153Z,104.30
2019-01-19T05:12:41.803Z,108.03
2019-01-19T05:15:12.452Z,95.13
2019-01-19T05:17:40.157Z,84.37
2019-01-19T05:20:09.010Z,92.00
2019-01-19T05:22:36.575Z,80.00
2019-01-19T05:25:10.128Z,73.37
2019-01-19T05:27:37.838Z,74.77
2019-01-19T05:30:11.665Z,62.47
2019-01-19T05:32:39.197Z,72.53
2019-01-19T05:35:07.375Z,64.97
2019-01-19T05:37:35.163Z,72.23
2019-01-19T05:40:03.783Z,82.30
2019-01-19T05:42:31.449Z,79.83
2019-01-19T05:44:58.954Z,80.53
2019-01-19T05:47:26.379Z,81.53
2019-01-19T05:49:53.962Z,89.90
2019-01-19T05:52:21.491Z,72.60
2019-01-19T05:54:50.073Z,94.70
2019-01-19T05:57:17.589Z,79.20
2019-01-19T05:59:45.233Z,81.40
2019-01-19T06:02:12.952Z,72.13
2019-01-19T06:04:40.500Z,76.47
2019-01-19T06:07:08.040Z,72.33
2019-01-19T06:09:35.577Z,83.23
2019-01-19T06:12:03.575Z,81.13
2019-01-19T06:14:31.254Z,72.10
2019-01-19T06:16:58.839Z,88.67
2019-01-19T06:19:26.879Z,77.07
2019-01-19T06:21:59.406Z,77.37
2019-01-19T06:24:27.241Z,78.80
2019-01-19T06:26:54.992Z,79.13
2019-01-19T06:29:22.716Z,79.87
2019-01-19T06:31:50.240Z,80.70
2019-01-19T06:34:17.707Z,69.10
2019-01-19T06:36:45.153Z,75.07
2019-01-19T06:39:12.699Z,65.23
2019-01-19T06:41:40.292Z,63.60
2019-01-19T06:44:07.796Z,69.33
2019-01-19T06:46:35.475Z,70.63
2019-01-19T06:49:02.998Z,72.07
2019-01-19T06:51:30.659Z,71.47
2019-01-19T06:54:01.767Z,77.37
2019-01-19T06:56:28.448Z,102.33
2019-01-19T06:58:56.214Z,89.50
2019-01-19T07:01:23.748Z,133.43
2019-01-19T07:03:51.583Z,98.73
2019-01-19T07:06:19.379Z,86.73
2019-01-19T07:08:47.698Z,85.53
2019-01-19T07:11:15.192Z,85.70
2019-01-19T07:13:42.806Z,100.83
2019-01-19T07:16:10.310Z,93.77
2019-01-19T07:18:37.796Z,90.83
2019-01-19T07:21:05.267Z,106.70
2019-01-19T07:23:32.928Z,101.47
2019-01-19T07:26:00.519Z,102.57
2019-01-19T07:28:28.093Z,84.70
2019-01-19T07:30:55.481Z,90.13
2019-01-19T07:33:23.062Z,98.30
2019-01-19T07:35:50.982Z,107.37
2019-01-19T07:38:18.622Z,103.73
2019-01-19T07:40:46.137Z,95.23
2019-01-19T07:43:15.255Z,100.30
2019-01-19T07:45:42.770Z,91.07
2019-01-19T07:48:10.985Z,117.10
2019-01-19T07:50:38.672Z,111.93
2019-01-19T07:53:06.381Z,110.67
2019-01-19T07:55:34.167Z,98.43
2019-01-19T07:58:01.702Z,97.70
2019-01-19T08:00:30.721Z,118.87
2019-01-19T08:02:58.384Z,85.03
2019-01-19T08:05:26.255Z,88.73
2019-01-19T08:07:53.808Z,99.83
2019-01-19T08:10:21.537Z,113.57
2019-01-19T08:12:49.248Z,113.63
2019-01-19T08:15:19.161Z,99.80
2019-01-19T08:17:46.776Z,106.50
2019-01-19T08:20:14.850Z,96.83
2019-01-19T08:22:42.625Z,91.80
2019-01-19T08:25:10.470Z,93.70
2019-01-19T08:27:38.177Z,92.87
2019-01-19T08:30:12.262Z,83.10
2019-01-19T08:32:39.897Z,91.43
2019-01-19T08:35:07.903Z,94.60
2019-01-19T08:37:35.577Z,92.20
2019-01-19T08:40:03.538Z,89.23
2019-01-19T08:42:31.562Z,98.33
2019-01-19T08:45:00.227Z,86.43
2019-01-19T08:47:27.749Z,89.10
2019-01-19T08:49:55.361Z,93.47
2019-01-19T08:52:23.100Z,93.23
2019-01-19T08:54:50.606Z,79.47
2019-01-19T08:57:18.175Z,70.97
2019-01-19T08:59:45.891Z,88.93
2019-01-19T09:02:13.434Z,84.67
2019-01-19T09:04:41.097Z,88.70
2019-01-19T09:07:08.686Z,85.00
2019-01-19T09:09:36.338Z,86.47
2019-01-19T09:12:03.980Z,88.23
2019-01-19T09:14:31.467Z,88.47
2019-01-19T09:16:58.932Z,88.23
2019-01-19T09:19:26.908Z,89.37
2019-01-19T09:21:54.501Z,80.27
2019-01-19T09:24:25.540Z,81.53
2019-01-19T09:26:53.453Z,85.33
2019-01-19T09:29:20.988Z,87.60
2019-01-19T09:31:48.516Z,83.40
2019-01-19T09:34:16.450Z,106.77
2019-01-19T09:36:44.219Z,77.70
2019-01-19T09:39:12.289Z,120.53
2019-01-19T09:41:39.870Z,119.33
2019-01-19T09:44:07.648Z,113.53
2019-01-19T09:46:35.056Z,107.17
2019-01-19T09:49:02.882Z,104.17
2019-01-19T09:51:30.353Z,104.07
2019-01-19T09:53:57.943Z,107.47
2019-01-19T09:56:25.566Z,82.27
2019-01-19T09:58:53.118Z,104.43
2019-01-19T10:01:20.673Z,103.13
2019-01-19T10:03:48.260Z,112.70
2019-01-19T10:06:15.984Z,108.40
2019-01-19T10:08:43.756Z,107.40
2019-01-19T10:11:12.059Z,106.60
2019-01-19T10:13:39.577Z,108.87
2019-01-19T10:16:07.223Z,106.17
2019-01-19T10:18:34.865Z,108.40
2019-01-19T10:21:02.399Z,115.73
2019-01-19T10:23:37.544Z,114.27
2019-01-19T10:26:05.102Z,117.77
2019-01-19T10:28:32.513Z,118.17
2019-01-19T10:31:00.120Z,116.93
2019-01-19T10:33:27.833Z,127.03
2019-01-19T10:35:55.394Z,115.73
2019-01-19T10:38:22.992Z,127.57
2019-01-19T10:40:50.685Z,119.87
2019-01-19T10:43:18.322Z,127.77
2019-01-19T10:45:45.798Z,130.80
2019-01-19T10:48:13.374Z,122.40
2019-01-19T10:50:41.000Z,125.07
2019-01-19T10:53:08.446Z,120.77
2019-01-19T10:55:36.098Z,131.97
2019-01-19T10:58:04.163Z,131.40
2019-01-19T11:00:31.751Z,124.97
2019-01-19T11:02:59.595Z,108.20
2019-01-19T11:05:28.081Z,104.83
2019-01-19T11:08:03.207Z,94.10
2019-01-19T11:10:28.113Z,94.73
2019-01-19T11:12:55.982Z,102.10
2019-01-19T11:15:23.629Z,97.53
2019-01-19T11:17:51.444Z,88.13
2019-01-19T11:20:21.087Z,94.53
2019-01-19T11:22:48.662Z,92.83
2019-01-19T11:25:16.230Z,90.67
2019-01-19T11:27:43.686Z,91.80
2019-01-19T11:30:17.787Z,94.83
2019-01-19T11:32:45.361Z,95.87
2019-01-19T11:35:13.450Z,99.53
2019-01-19T11:37:41.120Z,98.77
2019-01-19T11:40:14.601Z,92.23
2019-01-19T11:42:42.306Z,90.83
2019-01-19T11:45:13.146Z,93.97
2019-01-19T11:47:40.650Z,89.57
2019-01-19T11:50:08.579Z,86.93
2019-01-19T11:52:36.224Z,91.97
2019-01-19T11:55:05.212Z,82.73
2019-01-19T11:57:32.783Z,86.23
2019-01-19T12:00:00.350Z,93.67
2019-01-19T12:02:28.320Z,84.97
2019-01-19T12:04:55.920Z,84.93
2019-01-19T12:07:23.723Z,89.57
2019-01-19T12:09:51.549Z,92.63
2019-01-19T12:12:19.097Z,88.83
2019-01-19T12:14:47.002Z,88.23
2019-01-19T12:17:14.672Z,87.30
2019-01-19T12:19:42.410Z,85.00
2019-01-19T12:22:10.119Z,76.10
2019-01-19T12:24:37.732Z,82.97
2019-01-19T12:27:05.303Z,81.50
2019-01-19T12:29:32.860Z,82.57
2019-01-19T12:32:00.288Z,83.93
2019-01-19T12:34:27.951Z,78.77
2019-01-19T12:36:55.956Z,76.93
2019-01-19T12:39:23.545Z,78.40
2019-01-19T12:41:51.029Z,82.00
2019-01-19T12:44:18.703Z,91.47
2019-01-19T12:46:46.538Z,77.73
2019-01-19T12:49:14.635Z,76.53
2019-01-19T12:51:42.206Z,86.37
2019-01-19T12:54:09.672Z,79.57
2019-01-19T12:56:37.209Z,70.37
2019-01-19T12:59:04.950Z,71.30
2019-01-19T13:01:32.879Z,67.13
2019-01-19T13:04:00.432Z,61.50
2019-01-19T13:06:45.147Z,73.23
2019-01-19T13:09:27.821Z,71.80
2019-01-19T13:12:31.919Z,62.70
2019-01-19T13:15:56.197Z,70.60
2019-01-19T13:18:33.020Z,78.70
2019-01-19T13:21:45.129Z,67.93
2019-01-19T13:24:42.778Z,71.90
2019-01-19T13:27:20.718Z,72.97
2019-01-19T13:30:16.183Z,74.20
2019-01-19T13:33:12.361Z,72.57
2019-01-19T13:36:36.884Z,65.13
2019-01-19T13:39:49.052Z,57.20
2019-01-19T13:42:52.777Z,59.80
2019-01-19T13:45:32.626Z,61.40
2019-01-19T13:48:47.549Z,66.03
2019-01-19T13:51:40.837Z,65.97
2019-01-19T13:54:35.113Z,55.23
2019-01-19T13:57:35.605Z,65.67
2019-01-19T14:01:08.895Z,61.03
2019-01-19T14:03:44.803Z,52.73
2019-01-19T14:06:39.875Z,57.00
2019-01-19T14:09:53.886Z,61.83
2019-01-19T14:12:51.086Z,52.03
2019-01-19T14:15:41.104Z,54.77
2019-01-19T14:19:02.607Z,54.03
2019-01-19T14:21:55.358Z,46.33
2019-01-19T14:24:59.765Z,58.97
2019-01-19T14:28:14.476Z,59.07
2019-01-19T14:31:17.859Z,63.60
2019-01-19T14:34:33.883Z,73.43
2019-01-19T14:37:40.805Z,79.27
2019-01-19T14:40:37.813Z,81.77
2019-01-19T14:43:49.872Z,78.40
2019-01-19T14:46:59.149Z,83.07
2019-01-19T14:50:14.417Z,87.13
2019-01-19T14:53:10.137Z,88.60
2019-01-19T14:56:31.569Z,91.50
2019-01-19T14:59:30.268Z,102.90
2019-01-19T15:02:39.249Z,91.60
2019-01-19T15:05:34.241Z,84.23
2019-01-19T15:08:55.483Z,86.53
2019-01-19T15:11:46.601Z,89.60
2019-01-19T15:14:59.286Z,80.17
2019-01-19T15:18:04.456Z,76.27
2019-01-19T15:21:02.154Z,80.40
2019-01-19T15:23:53.451Z,84.53
2019-01-19T15:27:08.494Z,77.93
2019-01-19T15:29:53.862Z,77.07
2019-01-19T15:33:10.956Z,81.00
2019-01-19T15:36:01.535Z,84.47
2019-01-19T15:39:12.485Z,82.63
2019-01-19T15:42:20.195Z,84.00
2019-01-19T15:45:18.169Z,80.87
2019-01-19T15:48:33.444Z,75.23
2019-01-19T15:51:28.077Z,80.67
2019-01-19T15:54:43.457Z,73.63
2019-01-19T15:57:27.368Z,76.87
2019-01-19T16:00:44.427Z,70.93
2019-01-19T16:03:53.416Z,77.80
2019-01-19T16:06:42.169Z,79.53
2019-01-19T16:09:29.653Z,80.50
2019-01-19T16:12:38.072Z,85.10
2019-01-19T16:15:40.249Z,86.83
2019-01-19T16:18:36.998Z,91.93
2019-01-19T16:21:24.608Z,81.13
2019-01-19T16:24:42.722Z,80.83
2019-01-19T16:27:41.277Z,69.10
2019-01-19T16:30:50.162Z,53.67
2019-01-19T16:33:45.853Z,91.40
2019-01-19T16:36:36.740Z,81.30
2019-01-19T16:39:46.222Z,81.30
2019-01-19T16:42:42.493Z,81.43
2019-01-19T16:46:06.697Z,78.60
2019-01-19T16:49:14.645Z,58.03
2019-01-19T16:52:20.324Z,55.87
2019-01-19T16:55:32.492Z,62.17
2019-01-19T16:58:29.968Z,49.13
2019-01-19T17:01:51.369Z,39.03
2019-01-19T17:04:53.116Z,53.40
2019-01-19T17:07:51.247Z,49.63
2019-01-19T17:10:39.195Z,42.07
2019-01-19T17:13:42.595Z,39.60
2019-01-19T17:16:35.922Z,29.03
2019-01-19T17:19:49.583Z,25.50
2019-01-19T17:23:04.962Z,27.83
2019-01-19T17:26:08.870Z,20.83
2019-01-19T17:28:52.687Z,17.93
2019-01-19T17:32:07.513Z,19.50
2019-01-19T17:34:58.740Z,20.23
2019-01-19T17:37:56.864Z,17.93
2019-01-19T17:41:16.082Z,23.00
2019-01-19T17:44:37.789Z,16.97
2019-01-19T17:47:30.823Z,17.23
2019-01-19T17:50:37.614Z,17.87
2019-01-19T17:53:28.510Z,19.57
2019-01-19T17:56:29.288Z,22.10
2019-01-19T17:59:34.413Z,21.67
2019-01-19T18:02:35.206Z,20.10
2019-01-19T18:05:35.531Z,19.77
2019-01-19T18:08:31.725Z,18.53
2019-01-19T18:11:37.222Z,22.03
2019-01-19T18:14:22.878Z,21.80
2019-01-19T18:17:50.551Z,22.20
2019-01-19T18:20:43.026Z,23.77
2019-01-19T18:23:56.828Z,23.57
2019-01-19T18:26:59.699Z,25.90
2019-01-19T18:30:06.161Z,26.77
2019-01-19T18:33:36.853Z,29.93
2019-01-19T18:36:29.515Z,34.23
2019-01-19T18:39:57.042Z,35.53
2019-01-19T18:43:08.738Z,38.63
2019-01-19T18:46:10.198Z,35.40
2019-01-19T18:49:04.100Z,34.63
2019-01-19T18:52:31.844Z,34.67
2019-01-19T18:55:39.770Z,36.03
2019-01-19T18:59:07.059Z,39.47
2019-01-19T19:02:06.907Z,37.77
2019-01-19T19:05:10.515Z,32.97
2019-01-19T19:08:06.803Z,34.90
2019-01-19T19:11:17.651Z,36.60
2019-01-19T19:14:18.750Z,34.93
2019-01-19T19:17:19.243Z,31.60
2019-01-19T19:20:15.680Z,35.47
2019-01-19T19:23:22.095Z,31.90
2019-01-19T19:26:24.821Z,33.43
2019-01-19T19:29:30.061Z,35.13
2019-01-19T19:32:37.990Z,35.63
2019-01-19T19:36:08.420Z,33.30
2019-01-19T19:39:16.783Z,40.40
2019-01-19T19:42:19.527Z,38.77
2019-01-19T19:45:09.732Z,35.27
2019-01-19T19:48:23.898Z,39.53
2019-01-19T19:51:30.345Z,36.50
2019-01-19T19:53:58.214Z,37.57
2019-01-19T19:56:24.482Z,42.27
2019-01-19T19:58:52.006Z,37.10
2019-01-19T20:01:19.550Z,39.13
2019-01-19T20:03:47.288Z,39.67
2019-01-19T20:06:14.929Z,42.87
2019-01-19T20:08:42.401Z,34.40
2019-01-19T20:11:09.952Z,37.90
2019-01-19T20:13:37.716Z,39.87
2019-01-19T20:16:05.340Z,43.77
2019-01-19T20:18:33.072Z,45.87
2019-01-19T20:21:00.577Z,42.37
2019-01-19T20:23:28.847Z,46.40
2019-01-19T20:25:56.737Z,48.23
2019-01-19T20:28:24.194Z,46.00
2019-01-19T20:30:51.845Z,48.77
2019-01-19T20:33:19.273Z,51.60
2019-01-19T20:35:46.914Z,47.53
2019-01-19T20:38:14.504Z,51.60
2019-01-19T20:40:42.227Z,53.03
2019-01-19T20:43:09.732Z,48.57
2019-01-19T20:45:37.240Z,46.27
2019-01-19T20:48:05.113Z,47.60
2019-01-19T20:50:32.693Z,45.43
2019-01-19T20:53:00.288Z,48.60
2019-01-19T20:55:27.910Z,47.50
2019-01-19T20:57:55.412Z,46.97
2019-01-19T21:00:23.135Z,47.17
2019-01-19T21:02:50.656Z,48.13
2019-01-19T21:05:18.151Z,47.30
2019-01-19T21:07:45.619Z,46.33
2019-01-19T21:10:13.299Z,46.37
2019-01-19T21:12:40.902Z,50.23
2019-01-19T21:15:10.122Z,42.50
2019-01-19T21:17:37.581Z,47.33
2019-01-19T21:20:07.290Z,44.10
2019-01-19T21:22:34.858Z,48.10
2019-01-19T21:25:03.159Z,43.33
2019-01-19T21:27:30.656Z,48.43
2019-01-19T21:29:58.238Z,41.60
2019-01-19T21:32:25.725Z,45.30
2019-01-19T21:34:53.241Z,42.93
2019-01-19T21:37:21.028Z,51.90
2019-01-19T21:39:48.755Z,53.73
2019-01-19T21:42:16.353Z,51.47
2019-01-19T21:44:43.899Z,56.33
2019-01-19T21:47:12.072Z,53.60
2019-01-19T21:49:39.937Z,55.33
2019-01-19T21:52:07.606Z,54.07
2019-01-19T21:54:35.461Z,57.90
2019-01-19T21:57:03.247Z,55.40
2019-01-19T21:59:31.087Z,55.67
2019-01-19T22:01:59.253Z,60.40
2019-01-19T22:04:26.936Z,60.83
2019-01-19T22:06:54.826Z,61.27
2019-01-19T22:09:22.344Z,60.97
2019-01-19T22:11:49.892Z,62.10
2019-01-19T22:14:17.438Z,48.43
2019-01-19T22:16:44.967Z,60.88
2019-01-19T22:19:12.476Z,58.47
2019-01-19T22:21:40.092Z,53.33
2019-01-19T22:24:07.650Z,54.80
2019-01-19T22:26:35.821Z,51.30
2019-01-19T22:29:03.790Z,54.87
2019-01-19T22:31:31.443Z,55.30
2019-01-19T22:33:59.166Z,58.87
2019-01-19T22:36:26.729Z,52.03
2019-01-19T22:38:54.339Z,63.23
2019-01-19T22:41:21.955Z,54.87
2019-01-19T22:43:49.572Z,58.07
2019-01-19T22:46:17.349Z,54.57
2019-01-19T22:48:44.984Z,60.30
2019-01-19T22:51:12.742Z,56.77
2019-01-19T22:53:40.395Z,62.13
2019-01-19T22:56:07.947Z,57.83
2019-01-19T22:58:35.671Z,55.93
2019-01-19T23:01:43.597Z,55.20
2019-01-19T23:04:12.144Z,56.80
2019-01-19T23:06:39.855Z,57.20
2019-01-19T23:09:14.277Z,52.47
2019-01-19T23:11:42.525Z,51.90
2019-01-19T23:14:11.415Z,59.50
2019-01-19T23:16:39.744Z,61.40
2019-01-19T23:19:07.488Z,54.47
2019-01-19T23:21:35.056Z,54.03
2019-01-19T23:24:02.670Z,49.00
2019-01-19T23:26:30.580Z,51.07
2019-01-19T23:28:58.054Z,56.77
2019-01-19T23:31:26.095Z,56.10
2019-01-19T23:33:53.635Z,55.98
2019-01-19T23:36:21.224Z,51.07
2019-01-19T23:38:48.767Z,44.53
2019-01-19T23:41:16.213Z,49.03
2019-01-19T23:43:43.732Z,48.30
2019-01-19T23:46:11.301Z,53.63
2019-01-19T23:48:38.791Z,45.13
2019-01-19T23:51:06.427Z,42.60
2019-01-19T23:53:34.223Z,50.08
2019-01-19T23:56:01.753Z,47.73
2019-01-19T23:58:29.191Z,46.97
